sensor_id;sensor_type;location;lat;lon;timestamp;pressure;altitude;pressure_sealevel;temperature;humidity
61086;BME280;46967;48.876;2.136;2024-03-25T00:00:23;100877.97;;;20.84;25.30
61086;BME280;46967;48.876;2.136;2024-03-25T00:02:50;100879.16;;;20.67;25.46
61086;BME280;46967;48.876;2.136;2024-03-25T00:05:16;100869.56;;;20.53;25.80
61086;BME280;46967;48.876;2.136;2024-03-25T00:07:47;100866.72;;;20.69;25.56
61086;BME280;46967;48.876;2.136;2024-03-25T00:10:12;100866.59;;;20.71;25.36
61086;BME280;46967;48.876;2.136;2024-03-25T00:12:38;100864.56;;;20.74;25.42
61086;BME280;46967;48.876;2.136;2024-03-25T00:15:04;100867.75;;;20.54;25.62
61086;BME280;46967;48.876;2.136;2024-03-25T00:17:29;100858.41;;;20.50;25.65
61086;BME280;46967;48.876;2.136;2024-03-25T00:19:55;100867.31;;;20.73;25.38
61086;BME280;46967;48.876;2.136;2024-03-25T00:22:21;100863.53;;;21.01;24.80
61086;BME280;46967;48.876;2.136;2024-03-25T00:24:47;100855.34;;;21.17;24.56
61086;BME280;46967;48.876;2.136;2024-03-25T00:27:14;100847.16;;;21.09;24.67
61086;BME280;46967;48.876;2.136;2024-03-25T00:29:39;100854.50;;;21.16;24.43
61086;BME280;46967;48.876;2.136;2024-03-25T00:32:05;100852.88;;;20.78;25.27
61086;BME280;46967;48.876;2.136;2024-03-25T00:34:31;100849.88;;;20.46;25.36
61086;BME280;46967;48.876;2.136;2024-03-25T00:36:58;100853.91;;;20.13;26.07
61086;BME280;46967;48.876;2.136;2024-03-25T00:39:23;100842.41;;;20.27;25.60
61086;BME280;46967;48.876;2.136;2024-03-25T00:41:49;100843.47;;;20.12;25.82
61086;BME280;46967;48.876;2.136;2024-03-25T00:44:14;100847.38;;;19.93;26.50
61086;BME280;46967;48.876;2.136;2024-03-25T00:46:40;100845.38;;;19.84;26.77
61086;BME280;46967;48.876;2.136;2024-03-25T00:49:07;100845.84;;;19.63;27.30
61086;BME280;46967;48.876;2.136;2024-03-25T00:51:32;100836.56;;;19.45;27.94
61086;BME280;46967;48.876;2.136;2024-03-25T00:53:58;100829.09;;;19.51;27.74
61086;BME280;46967;48.876;2.136;2024-03-25T00:56:23;100824.16;;;19.72;27.34
61086;BME280;46967;48.876;2.136;2024-03-25T00:58:48;100822.84;;;19.80;27.18
61086;BME280;46967;48.876;2.136;2024-03-25T01:01:14;100818.41;;;19.93;27.08
61086;BME280;46967;48.876;2.136;2024-03-25T01:03:39;100814.84;;;19.94;26.84
61086;BME280;46967;48.876;2.136;2024-03-25T01:06:05;100801.97;;;20.02;26.83
61086;BME280;46967;48.876;2.136;2024-03-25T01:08:30;100804.09;;;19.97;27.04
61086;BME280;46967;48.876;2.136;2024-03-25T01:10:55;100795.94;;;19.62;27.65
61086;BME280;46967;48.876;2.136;2024-03-25T01:13:21;100792.88;;;19.55;27.51
61086;BME280;46967;48.876;2.136;2024-03-25T01:15:46;100794.47;;;19.70;27.44
61086;BME280;46967;48.876;2.136;2024-03-25T01:18:12;100790.19;;;19.82;27.17
61086;BME280;46967;48.876;2.136;2024-03-25T01:20:37;100781.22;;;19.72;27.33
61086;BME280;46967;48.876;2.136;2024-03-25T01:23:03;100779.13;;;19.77;27.09
61086;BME280;46967;48.876;2.136;2024-03-25T01:25:30;100773.75;;;19.91;26.73
61086;BME280;46967;48.876;2.136;2024-03-25T01:27:55;100776.03;;;19.70;26.95
61086;BME280;46967;48.876;2.136;2024-03-25T01:30:20;100776.88;;;19.71;27.14
61086;BME280;46967;48.876;2.136;2024-03-25T01:32:46;100769.56;;;19.89;26.96
61086;BME280;46967;48.876;2.136;2024-03-25T01:35:15;100772.06;;;19.90;26.83
61086;BME280;46967;48.876;2.136;2024-03-25T01:37:43;100760.16;;;19.98;26.22
61086;BME280;46967;48.876;2.136;2024-03-25T01:40:08;100752.78;;;19.90;26.55
61086;BME280;46967;48.876;2.136;2024-03-25T01:42:36;100753.09;;;19.98;26.53
61086;BME280;46967;48.876;2.136;2024-03-25T01:45:01;100747.09;;;19.96;26.24
61086;BME280;46967;48.876;2.136;2024-03-25T01:47:29;100742.25;;;19.90;26.28
61086;BME280;46967;48.876;2.136;2024-03-25T01:49:56;100734.25;;;19.91;26.66
61086;BME280;46967;48.876;2.136;2024-03-25T01:52:22;100745.09;;;19.87;26.50
61086;BME280;46967;48.876;2.136;2024-03-25T01:54:48;100733.94;;;19.83;26.64
61086;BME280;46967;48.876;2.136;2024-03-25T01:57:15;100728.16;;;19.78;26.70
61086;BME280;46967;48.876;2.136;2024-03-25T01:59:41;100716.31;;;19.97;26.58
61086;BME280;46967;48.876;2.136;2024-03-25T02:02:07;100712.72;;;20.11;26.26
61086;BME280;46967;48.876;2.136;2024-03-25T02:04:33;100711.72;;;19.87;26.40
61086;BME280;46967;48.876;2.136;2024-03-25T02:06:59;100705.91;;;19.95;26.32
61086;BME280;46967;48.876;2.136;2024-03-25T02:09:26;100700.63;;;19.95;26.23
61086;BME280;46967;48.876;2.136;2024-03-25T02:11:52;100696.00;;;19.99;26.17
61086;BME280;46967;48.876;2.136;2024-03-25T02:14:18;100684.63;;;19.85;26.52
61086;BME280;46967;48.876;2.136;2024-03-25T02:16:44;100685.38;;;20.00;26.15
61086;BME280;46967;48.876;2.136;2024-03-25T02:19:11;100680.72;;;20.28;25.82
61086;BME280;46967;48.876;2.136;2024-03-25T02:21:38;100681.38;;;20.19;25.84
61086;BME280;46967;48.876;2.136;2024-03-25T02:24:05;100683.31;;;20.17;25.67
61086;BME280;46967;48.876;2.136;2024-03-25T02:26:34;100675.41;;;20.17;25.71
61086;BME280;46967;48.876;2.136;2024-03-25T02:28:59;100677.53;;;20.36;25.39
61086;BME280;46967;48.876;2.136;2024-03-25T02:31:25;100676.94;;;20.32;25.45
61086;BME280;46967;48.876;2.136;2024-03-25T02:33:50;100671.53;;;20.34;25.42
61086;BME280;46967;48.876;2.136;2024-03-25T02:36:16;100671.59;;;20.21;25.53
61086;BME280;46967;48.876;2.136;2024-03-25T02:38:41;100675.63;;;20.14;25.75
61086;BME280;46967;48.876;2.136;2024-03-25T02:41:07;100674.97;;;20.23;25.53
61086;BME280;46967;48.876;2.136;2024-03-25T02:43:33;100671.25;;;20.50;25.13
61086;BME280;46967;48.876;2.136;2024-03-25T02:45:58;100674.63;;;20.52;25.16
61086;BME280;46967;48.876;2.136;2024-03-25T02:48:24;100666.66;;;20.40;25.27
61086;BME280;46967;48.876;2.136;2024-03-25T02:50:49;100661.78;;;20.23;25.74
61086;BME280;46967;48.876;2.136;2024-03-25T02:53:15;100660.41;;;20.30;25.65
61086;BME280;46967;48.876;2.136;2024-03-25T02:55:41;100660.41;;;20.30;25.54
61086;BME280;46967;48.876;2.136;2024-03-25T02:58:06;100655.84;;;20.32;25.42
61086;BME280;46967;48.876;2.136;2024-03-25T03:00:31;100650.50;;;20.45;25.26
61086;BME280;46967;48.876;2.136;2024-03-25T03:02:57;100652.13;;;20.35;25.15
61086;BME280;46967;48.876;2.136;2024-03-25T03:05:22;100654.53;;;20.14;25.68
61086;BME280;46967;48.876;2.136;2024-03-25T03:07:47;100642.94;;;20.16;25.61
61086;BME280;46967;48.876;2.136;2024-03-25T03:10:13;100640.25;;;20.29;25.55
61086;BME280;46967;48.876;2.136;2024-03-25T03:12:38;100637.41;;;20.32;25.47
61086;BME280;46967;48.876;2.136;2024-03-25T03:15:04;100626.00;;;20.32;25.52
61086;BME280;46967;48.876;2.136;2024-03-25T03:17:30;100630.09;;;20.36;25.14
61086;BME280;46967;48.876;2.136;2024-03-25T03:19:55;100624.38;;;20.42;25.33
61086;BME280;46967;48.876;2.136;2024-03-25T03:22:20;100615.31;;;20.46;25.27
61086;BME280;46967;48.876;2.136;2024-03-25T03:24:45;100609.28;;;20.44;25.23
61086;BME280;46967;48.876;2.136;2024-03-25T03:27:11;100595.50;;;20.40;25.15
61086;BME280;46967;48.876;2.136;2024-03-25T03:29:36;100593.00;;;20.15;25.28
61086;BME280;46967;48.876;2.136;2024-03-25T03:32:01;100594.19;;;19.86;25.86
61086;BME280;46967;48.876;2.136;2024-03-25T03:34:27;100592.72;;;19.69;26.22
61086;BME280;46967;48.876;2.136;2024-03-25T03:36:52;100594.47;;;19.95;25.69
61086;BME280;46967;48.876;2.136;2024-03-25T03:39:17;100588.47;;;19.93;25.97
61086;BME280;46967;48.876;2.136;2024-03-25T03:41:44;100588.00;;;19.62;26.32
61086;BME280;46967;48.876;2.136;2024-03-25T03:44:09;100592.38;;;19.37;26.87
61086;BME280;46967;48.876;2.136;2024-03-25T03:46:34;100584.34;;;19.51;26.58
61086;BME280;46967;48.876;2.136;2024-03-25T03:49:00;100581.44;;;19.43;26.60
61086;BME280;46967;48.876;2.136;2024-03-25T03:51:25;100586.88;;;19.53;26.41
61086;BME280;46967;48.876;2.136;2024-03-25T03:53:51;100572.66;;;19.43;26.45
61086;BME280;46967;48.876;2.136;2024-03-25T03:56:17;100569.72;;;19.47;26.48
61086;BME280;46967;48.876;2.136;2024-03-25T03:58:42;100569.59;;;19.49;26.22
61086;BME280;46967;48.876;2.136;2024-03-25T04:01:14;100567.28;;;19.44;26.41
61086;BME280;46967;48.876;2.136;2024-03-25T04:03:40;100561.03;;;19.34;26.54
61086;BME280;46967;48.876;2.136;2024-03-25T04:06:12;100577.63;;;19.34;26.43
61086;BME280;46967;48.876;2.136;2024-03-25T04:08:39;100558.75;;;19.53;26.05
61086;BME280;46967;48.876;2.136;2024-03-25T04:11:05;100558.66;;;19.55;26.18
61086;BME280;46967;48.876;2.136;2024-03-25T04:13:34;100561.78;;;19.60;25.85
61086;BME280;46967;48.876;2.136;2024-03-25T04:16:04;100561.78;;;19.60;26.09
61086;BME280;46967;48.876;2.136;2024-03-25T04:18:32;100544.03;;;19.51;26.07
61086;BME280;46967;48.876;2.136;2024-03-25T04:20:58;100537.13;;;19.37;26.32
61086;BME280;46967;48.876;2.136;2024-03-25T04:23:24;100532.88;;;19.47;26.21
61086;BME280;46967;48.876;2.136;2024-03-25T04:25:50;100535.19;;;19.52;26.17
61086;BME280;46967;48.876;2.136;2024-03-25T04:28:15;100533.13;;;19.31;26.38
61086;BME280;46967;48.876;2.136;2024-03-25T04:30:40;100518.28;;;19.43;26.33
61086;BME280;46967;48.876;2.136;2024-03-25T04:33:06;100511.28;;;19.55;26.36
61086;BME280;46967;48.876;2.136;2024-03-25T04:35:32;100515.28;;;19.61;25.97
61086;BME280;46967;48.876;2.136;2024-03-25T04:37:57;100510.44;;;19.54;26.11
61086;BME280;46967;48.876;2.136;2024-03-25T04:40:22;100514.88;;;19.41;26.23
61086;BME280;46967;48.876;2.136;2024-03-25T04:42:48;100508.13;;;19.26;26.59
61086;BME280;46967;48.876;2.136;2024-03-25T04:45:14;100507.56;;;19.33;26.53
61086;BME280;46967;48.876;2.136;2024-03-25T04:47:39;100511.47;;;19.28;26.47
61086;BME280;46967;48.876;2.136;2024-03-25T04:50:05;100512.63;;;19.36;26.64
61086;BME280;46967;48.876;2.136;2024-03-25T04:52:31;100519.22;;;19.42;26.45
61086;BME280;46967;48.876;2.136;2024-03-25T04:54:56;100504.31;;;19.67;26.18
61086;BME280;46967;48.876;2.136;2024-03-25T04:57:22;100494.81;;;19.64;26.57
61086;BME280;46967;48.876;2.136;2024-03-25T04:59:48;100499.91;;;19.54;26.40
61086;BME280;46967;48.876;2.136;2024-03-25T05:02:13;100505.38;;;19.27;26.86
61086;BME280;46967;48.876;2.136;2024-03-25T05:04:39;100508.94;;;19.26;26.99
61086;BME280;46967;48.876;2.136;2024-03-25T05:07:04;100504.25;;;19.43;26.70
61086;BME280;46967;48.876;2.136;2024-03-25T05:09:29;100500.84;;;19.53;26.69
61086;BME280;46967;48.876;2.136;2024-03-25T05:11:55;100493.88;;;19.65;26.49
61086;BME280;46967;48.876;2.136;2024-03-25T05:14:20;100494.94;;;19.63;26.50
61086;BME280;46967;48.876;2.136;2024-03-25T05:16:45;100493.00;;;19.41;26.74
61086;BME280;46967;48.876;2.136;2024-03-25T05:19:11;100501.13;;;19.37;27.01
61086;BME280;46967;48.876;2.136;2024-03-25T05:21:36;100500.75;;;19.55;26.49
61086;BME280;46967;48.876;2.136;2024-03-25T05:24:01;100493.97;;;19.77;26.43
61086;BME280;46967;48.876;2.136;2024-03-25T05:26:27;100487.88;;;19.63;26.51
61086;BME280;46967;48.876;2.136;2024-03-25T05:28:54;100493.19;;;19.50;26.56
61086;BME280;46967;48.876;2.136;2024-03-25T05:31:19;100486.94;;;19.64;26.51
61086;BME280;46967;48.876;2.136;2024-03-25T05:33:45;100485.28;;;19.87;26.11
61086;BME280;46967;48.876;2.136;2024-03-25T05:36:10;100482.25;;;19.81;26.25
61086;BME280;46967;48.876;2.136;2024-03-25T05:38:35;100478.94;;;19.90;26.03
61086;BME280;46967;48.876;2.136;2024-03-25T05:41:01;100478.91;;;19.66;26.22
61086;BME280;46967;48.876;2.136;2024-03-25T05:43:26;100474.66;;;19.52;26.50
61086;BME280;46967;48.876;2.136;2024-03-25T05:45:54;100482.59;;;19.39;26.60
61086;BME280;46967;48.876;2.136;2024-03-25T05:48:20;100481.44;;;19.43;26.62
61086;BME280;46967;48.876;2.136;2024-03-25T05:50:46;100465.25;;;19.36;26.68
61086;BME280;46967;48.876;2.136;2024-03-25T05:53:11;100470.22;;;19.28;26.81
61086;BME280;46967;48.876;2.136;2024-03-25T05:55:36;100470.13;;;19.17;27.17
61086;BME280;46967;48.876;2.136;2024-03-25T05:58:02;100473.50;;;19.19;26.85
61086;BME280;46967;48.876;2.136;2024-03-25T06:00:29;100459.50;;;19.18;26.94
61086;BME280;46967;48.876;2.136;2024-03-25T06:02:55;100465.84;;;19.16;27.16
61086;BME280;46967;48.876;2.136;2024-03-25T06:05:21;100465.31;;;19.11;27.24
61086;BME280;46967;48.876;2.136;2024-03-25T06:07:46;100465.38;;;19.35;27.02
61086;BME280;46967;48.876;2.136;2024-03-25T06:10:11;100453.00;;;19.48;26.78
61086;BME280;46967;48.876;2.136;2024-03-25T06:12:37;100453.94;;;19.47;26.75
61086;BME280;46967;48.876;2.136;2024-03-25T06:15:02;100453.16;;;19.34;27.24
61086;BME280;46967;48.876;2.136;2024-03-25T06:17:28;100458.03;;;19.27;27.24
61086;BME280;46967;48.876;2.136;2024-03-25T06:19:53;100447.28;;;19.30;27.24
61086;BME280;46967;48.876;2.136;2024-03-25T06:22:18;100445.47;;;19.31;27.22
61086;BME280;46967;48.876;2.136;2024-03-25T06:24:43;100447.69;;;19.37;27.40
61086;BME280;46967;48.876;2.136;2024-03-25T06:27:09;100449.81;;;19.19;27.97
61086;BME280;46967;48.876;2.136;2024-03-25T06:29:35;100448.78;;;19.22;27.85
61086;BME280;46967;48.876;2.136;2024-03-25T06:32:01;100443.06;;;19.28;27.97
61086;BME280;46967;48.876;2.136;2024-03-25T06:34:45;100442.56;;;19.23;27.99
61086;BME280;46967;48.876;2.136;2024-03-25T06:37:10;100437.78;;;19.04;28.53
61086;BME280;46967;48.876;2.136;2024-03-25T06:39:36;100429.28;;;18.87;28.82
61086;BME280;46967;48.876;2.136;2024-03-25T06:42:01;100422.91;;;19.15;28.47
61086;BME280;46967;48.876;2.136;2024-03-25T06:44:27;100427.44;;;19.13;28.53
61086;BME280;46967;48.876;2.136;2024-03-25T06:46:52;100419.13;;;19.19;28.42
61086;BME280;46967;48.876;2.136;2024-03-25T06:49:18;100412.25;;;18.93;29.05
61086;BME280;46967;48.876;2.136;2024-03-25T06:51:43;100418.22;;;18.95;29.08
61086;BME280;46967;48.876;2.136;2024-03-25T06:54:08;100413.72;;;18.97;29.16
61086;BME280;46967;48.876;2.136;2024-03-25T06:56:33;100411.09;;;18.84;29.75
61086;BME280;46967;48.876;2.136;2024-03-25T06:58:59;100403.97;;;18.86;29.76
61086;BME280;46967;48.876;2.136;2024-03-25T07:01:24;100405.25;;;19.05;29.55
61086;BME280;46967;48.876;2.136;2024-03-25T07:03:50;100404.78;;;18.87;29.73
61086;BME280;46967;48.876;2.136;2024-03-25T07:06:16;100398.78;;;18.97;30.00
61086;BME280;46967;48.876;2.136;2024-03-25T07:08:42;100391.81;;;18.96;29.85
61086;BME280;46967;48.876;2.136;2024-03-25T07:11:07;100394.13;;;19.01;29.81
61086;BME280;46967;48.876;2.136;2024-03-25T07:13:32;100387.28;;;19.11;29.97
61086;BME280;46967;48.876;2.136;2024-03-25T07:15:58;100385.59;;;19.10;29.79
61086;BME280;46967;48.876;2.136;2024-03-25T07:18:24;100393.38;;;19.12;30.11
61086;BME280;46967;48.876;2.136;2024-03-25T07:20:49;100393.03;;;19.16;29.86
61086;BME280;46967;48.876;2.136;2024-03-25T07:23:14;100381.38;;;19.08;30.11
61086;BME280;46967;48.876;2.136;2024-03-25T07:25:40;100384.22;;;19.17;29.95
61086;BME280;46967;48.876;2.136;2024-03-25T07:28:05;100382.97;;;19.10;30.06
61086;BME280;46967;48.876;2.136;2024-03-25T07:30:31;100380.59;;;19.18;29.73
61086;BME280;46967;48.876;2.136;2024-03-25T07:32:59;100381.00;;;19.25;29.89
61086;BME280;46967;48.876;2.136;2024-03-25T07:35:25;100380.44;;;19.33;30.14
61086;BME280;46967;48.876;2.136;2024-03-25T07:37:52;100383.88;;;18.85;30.55
61086;BME280;46967;48.876;2.136;2024-03-25T07:40:21;100380.81;;;18.91;30.33
61086;BME280;46967;48.876;2.136;2024-03-25T07:42:48;100375.84;;;18.99;30.51
61086;BME280;46967;48.876;2.136;2024-03-25T07:45:14;100369.97;;;18.83;30.25
61086;BME280;46967;48.876;2.136;2024-03-25T07:47:39;100360.59;;;18.29;31.21
61086;BME280;46967;48.876;2.136;2024-03-25T07:50:05;100353.31;;;18.58;30.72
61086;BME280;46967;48.876;2.136;2024-03-25T07:52:31;100345.69;;;18.92;30.11
61086;BME280;46967;48.876;2.136;2024-03-25T07:54:57;100336.94;;;18.42;30.41
61086;BME280;46967;48.876;2.136;2024-03-25T07:57:22;100336.91;;;19.05;29.27
61086;BME280;46967;48.876;2.136;2024-03-25T07:59:48;100334.88;;;18.84;30.13
61086;BME280;46967;48.876;2.136;2024-03-25T08:02:13;100325.78;;;18.64;29.94
61086;BME280;46967;48.876;2.136;2024-03-25T08:04:39;100326.13;;;18.83;29.49
61086;BME280;46967;48.876;2.136;2024-03-25T08:07:05;100327.06;;;19.19;29.14
61086;BME280;46967;48.876;2.136;2024-03-25T08:09:30;100323.25;;;19.24;28.34
61086;BME280;46967;48.876;2.136;2024-03-25T08:11:55;100325.88;;;19.59;28.51
61086;BME280;46967;48.876;2.136;2024-03-25T08:14:21;100317.72;;;19.86;28.07
61086;BME280;46967;48.876;2.136;2024-03-25T08:16:47;100317.63;;;19.99;27.81
61086;BME280;46967;48.876;2.136;2024-03-25T08:19:12;100307.78;;;20.01;27.65
61086;BME280;46967;48.876;2.136;2024-03-25T08:21:38;100310.09;;;19.59;28.83
61086;BME280;46967;48.876;2.136;2024-03-25T08:24:03;100306.84;;;19.91;28.62
61086;BME280;46967;48.876;2.136;2024-03-25T08:26:29;100307.66;;;20.03;27.94
61086;BME280;46967;48.876;2.136;2024-03-25T08:28:54;100296.78;;;19.96;27.78
61086;BME280;46967;48.876;2.136;2024-03-25T08:31:19;100301.22;;;19.84;28.03
61086;BME280;46967;48.876;2.136;2024-03-25T08:33:44;100295.59;;;20.34;27.62
61086;BME280;46967;48.876;2.136;2024-03-25T08:36:10;100291.22;;;19.65;28.72
61086;BME280;46967;48.876;2.136;2024-03-25T08:38:35;100297.72;;;19.84;28.37
61086;BME280;46967;48.876;2.136;2024-03-25T08:41:01;100281.34;;;19.91;28.39
61086;BME280;46967;48.876;2.136;2024-03-25T08:43:26;100285.88;;;20.35;28.00
61086;BME280;46967;48.876;2.136;2024-03-25T08:45:51;100284.41;;;19.03;30.26
61086;BME280;46967;48.876;2.136;2024-03-25T08:48:17;100282.16;;;19.34;30.25
61086;BME280;46967;48.876;2.136;2024-03-25T08:50:42;100280.25;;;19.83;29.47
61086;BME280;46967;48.876;2.136;2024-03-25T08:53:07;100277.84;;;20.36;28.95
61086;BME280;46967;48.876;2.136;2024-03-25T08:55:33;100267.13;;;19.59;30.20
61086;BME280;46967;48.876;2.136;2024-03-25T08:57:59;100265.72;;;20.68;28.63
61086;BME280;46967;48.876;2.136;2024-03-25T09:00:27;100258.91;;;20.97;28.48
61086;BME280;46967;48.876;2.136;2024-03-25T09:02:56;100256.75;;;20.70;28.92
61086;BME280;46967;48.876;2.136;2024-03-25T09:05:22;100249.72;;;20.37;29.46
61086;BME280;46967;48.876;2.136;2024-03-25T09:07:50;100248.53;;;20.85;28.61
61086;BME280;46967;48.876;2.136;2024-03-25T09:10:18;100246.53;;;21.30;28.44
61086;BME280;46967;48.876;2.136;2024-03-25T09:13:01;100227.28;;;20.42;29.40
61086;BME280;46967;48.876;2.136;2024-03-25T09:15:28;100240.00;;;20.92;28.69
61086;BME280;46967;48.876;2.136;2024-03-25T09:17:53;100236.81;;;19.88;30.40
61086;BME280;46967;48.876;2.136;2024-03-25T09:20:18;100230.63;;;20.99;28.71
61086;BME280;46967;48.876;2.136;2024-03-25T09:22:46;100227.69;;;21.87;27.28
61086;BME280;46967;48.876;2.136;2024-03-25T09:25:14;100215.91;;;22.32;26.85
61086;BME280;46967;48.876;2.136;2024-03-25T09:27:39;100220.09;;;22.44;26.59
61086;BME280;46967;48.876;2.136;2024-03-25T09:30:05;100216.53;;;22.74;26.31
61086;BME280;46967;48.876;2.136;2024-03-25T09:32:30;100213.31;;;22.90;26.01
61086;BME280;46967;48.876;2.136;2024-03-25T09:34:59;100211.78;;;22.78;25.92
61086;BME280;46967;48.876;2.136;2024-03-25T09:37:24;100204.41;;;22.62;25.93
61086;BME280;46967;48.876;2.136;2024-03-25T09:39:49;100203.56;;;23.30;25.58
61086;BME280;46967;48.876;2.136;2024-03-25T09:42:21;100199.63;;;23.34;25.25
61086;BME280;46967;48.876;2.136;2024-03-25T09:44:50;100200.50;;;22.95;25.68
61086;BME280;46967;48.876;2.136;2024-03-25T09:47:15;100193.84;;;23.11;25.23
61086;BME280;46967;48.876;2.136;2024-03-25T09:49:42;100179.47;;;23.04;25.32
61086;BME280;46967;48.876;2.136;2024-03-25T09:52:07;100178.09;;;23.09;25.12
61086;BME280;46967;48.876;2.136;2024-03-25T09:54:33;100183.09;;;22.83;25.47
61086;BME280;46967;48.876;2.136;2024-03-25T09:57:00;100178.50;;;23.14;25.23
61086;BME280;46967;48.876;2.136;2024-03-25T09:59:26;100175.69;;;23.73;25.12
61086;BME280;46967;48.876;2.136;2024-03-25T10:01:52;100171.88;;;24.31;24.25
61086;BME280;46967;48.876;2.136;2024-03-25T10:04:18;100163.19;;;23.08;25.13
61086;BME280;46967;48.876;2.136;2024-03-25T10:06:44;100169.44;;;23.27;24.81
61086;BME280;46967;48.876;2.136;2024-03-25T10:09:09;100160.59;;;23.46;24.64
61086;BME280;46967;48.876;2.136;2024-03-25T10:11:35;100156.66;;;23.50;24.54
61086;BME280;46967;48.876;2.136;2024-03-25T10:14:01;100145.94;;;23.51;24.17
61086;BME280;46967;48.876;2.136;2024-03-25T10:16:27;100143.81;;;22.98;24.96
61086;BME280;46967;48.876;2.136;2024-03-25T10:18:53;100141.91;;;23.85;24.05
61086;BME280;46967;48.876;2.136;2024-03-25T10:21:21;100131.81;;;23.98;23.73
61086;BME280;46967;48.876;2.136;2024-03-25T10:23:49;100126.72;;;24.23;23.66
61086;BME280;46967;48.876;2.136;2024-03-25T10:26:43;100127.41;;;23.79;23.50
61086;BME280;46967;48.876;2.136;2024-03-25T10:29:09;100128.50;;;24.68;23.25
61086;BME280;46967;48.876;2.136;2024-03-25T10:31:36;100117.00;;;24.23;23.27
61086;BME280;46967;48.876;2.136;2024-03-25T10:34:01;100106.88;;;24.09;23.38
61086;BME280;46967;48.876;2.136;2024-03-25T10:36:27;100109.03;;;24.23;22.38
61086;BME280;46967;48.876;2.136;2024-03-25T10:38:55;100097.06;;;25.00;22.19
61086;BME280;46967;48.876;2.136;2024-03-25T10:41:21;100095.09;;;24.39;23.16
61086;BME280;46967;48.876;2.136;2024-03-25T10:43:48;100098.25;;;24.61;22.72
61086;BME280;46967;48.876;2.136;2024-03-25T10:46:18;100082.84;;;25.35;21.73
61086;BME280;46967;48.876;2.136;2024-03-25T10:48:49;100075.56;;;24.85;22.31
61086;BME280;46967;48.876;2.136;2024-03-25T10:51:20;100073.72;;;25.11;22.80
61086;BME280;46967;48.876;2.136;2024-03-25T10:53:46;100056.34;;;25.60;21.77
61086;BME280;46967;48.876;2.136;2024-03-25T10:56:13;100045.47;;;25.96;21.52
61086;BME280;46967;48.876;2.136;2024-03-25T10:58:39;100044.22;;;26.33;20.60
61086;BME280;46967;48.876;2.136;2024-03-25T11:01:06;100044.19;;;26.49;21.75
61086;BME280;46967;48.876;2.136;2024-03-25T11:03:31;100028.06;;;26.26;21.07
61086;BME280;46967;48.876;2.136;2024-03-25T11:05:57;100020.28;;;26.41;20.55
61086;BME280;46967;48.876;2.136;2024-03-25T11:08:30;100010.78;;;26.06;20.91
61086;BME280;46967;48.876;2.136;2024-03-25T11:10:56;100013.78;;;25.35;21.29
61086;BME280;46967;48.876;2.136;2024-03-25T11:13:22;100005.94;;;24.91;20.83
61086;BME280;46967;48.876;2.136;2024-03-25T11:15:48;99999.03;;;24.98;21.68
61086;BME280;46967;48.876;2.136;2024-03-25T11:18:16;99991.41;;;25.03;21.32
61086;BME280;46967;48.876;2.136;2024-03-25T11:20:42;99988.31;;;24.82;20.86
61086;BME280;46967;48.876;2.136;2024-03-25T11:23:12;99982.19;;;23.93;22.17
61086;BME280;46967;48.876;2.136;2024-03-25T11:25:38;99983.63;;;24.49;21.22
61086;BME280;46967;48.876;2.136;2024-03-25T11:28:04;99977.41;;;23.96;21.20
61086;BME280;46967;48.876;2.136;2024-03-25T11:30:30;99968.06;;;25.23;20.49
61086;BME280;46967;48.876;2.136;2024-03-25T11:32:57;99960.06;;;25.07;20.86
61086;BME280;46967;48.876;2.136;2024-03-25T11:35:22;99953.84;;;24.90;20.60
61086;BME280;46967;48.876;2.136;2024-03-25T11:37:48;99949.09;;;25.36;20.59
61086;BME280;46967;48.876;2.136;2024-03-25T11:40:15;99940.31;;;25.77;20.65
61086;BME280;46967;48.876;2.136;2024-03-25T11:42:41;99924.31;;;25.27;20.50
61086;BME280;46967;48.876;2.136;2024-03-25T11:45:14;99923.88;;;25.81;20.18
61086;BME280;46967;48.876;2.136;2024-03-25T11:47:45;99915.31;;;24.69;21.09
61086;BME280;46967;48.876;2.136;2024-03-25T11:50:12;99903.47;;;25.65;20.35
61086;BME280;46967;48.876;2.136;2024-03-25T11:52:38;99898.66;;;25.69;19.99
61086;BME280;46967;48.876;2.136;2024-03-25T11:55:04;99897.47;;;26.77;19.81
61086;BME280;46967;48.876;2.136;2024-03-25T11:57:29;99889.31;;;26.79;18.85
61086;BME280;46967;48.876;2.136;2024-03-25T11:59:55;99889.53;;;25.55;19.23
61086;BME280;46967;48.876;2.136;2024-03-25T12:02:20;99884.88;;;26.07;19.87
61086;BME280;46967;48.876;2.136;2024-03-25T12:04:47;99884.13;;;26.37;19.69
61086;BME280;46967;48.876;2.136;2024-03-25T12:07:16;99871.81;;;26.92;19.36
61086;BME280;46967;48.876;2.136;2024-03-25T12:09:42;99864.16;;;26.50;20.08
61086;BME280;46967;48.876;2.136;2024-03-25T12:12:26;99860.34;;;26.92;19.32
61086;BME280;46967;48.876;2.136;2024-03-25T12:14:53;99853.34;;;26.91;18.94
61086;BME280;46967;48.876;2.136;2024-03-25T12:17:19;99840.47;;;27.26;18.24
61086;BME280;46967;48.876;2.136;2024-03-25T12:19:58;99840.34;;;27.19;18.56
61086;BME280;46967;48.876;2.136;2024-03-25T12:22:25;99831.19;;;26.67;18.56
61086;BME280;46967;48.876;2.136;2024-03-25T12:24:51;99825.34;;;26.64;18.16
61086;BME280;46967;48.876;2.136;2024-03-25T12:27:16;99828.47;;;27.07;18.40
61086;BME280;46967;48.876;2.136;2024-03-25T12:29:42;99829.59;;;27.13;18.84
61086;BME280;46967;48.876;2.136;2024-03-25T12:32:09;99823.06;;;26.13;19.49
61086;BME280;46967;48.876;2.136;2024-03-25T12:34:35;99817.09;;;26.11;19.11
61086;BME280;46967;48.876;2.136;2024-03-25T12:37:01;99800.63;;;26.86;19.17
61086;BME280;46967;48.876;2.136;2024-03-25T12:39:28;99805.53;;;26.35;19.20
61086;BME280;46967;48.876;2.136;2024-03-25T12:41:54;99795.28;;;26.55;18.30
61086;BME280;46967;48.876;2.136;2024-03-25T12:44:19;99786.41;;;26.39;19.11